sensor_id;sensor_type;location;lat;lon;timestamp;temperature;humidity
76759;DHT22;65701;45.588;5.186;2023-04-08T00:01:43;6.62;69.17
76759;DHT22;65701;45.588;5.186;2023-04-08T00:04:09;6.62;69.18
76759;DHT22;65701;45.588;5.186;2023-04-08T00:06:34;6.61;69.37
76759;DHT22;65701;45.588;5.186;2023-04-08T00:09:01;6.61;69.33
76759;DHT22;65701;45.588;5.186;2023-04-08T00:11:27;6.55;69.22
76759;DHT22;65701;45.588;5.186;2023-04-08T00:13:53;6.53;68.76
76759;DHT22;65701;45.588;5.186;2023-04-08T00:16:18;6.50;68.62
76759;DHT22;65701;45.588;5.186;2023-04-08T00:18:45;6.46;68.69
76759;DHT22;65701;45.588;5.186;2023-04-08T00:21:11;6.44;68.48
76759;DHT22;65701;45.588;5.186;2023-04-08T00:23:37;6.39;68.63
76759;DHT22;65701;45.588;5.186;2023-04-08T00:26:03;6.38;68.84
76759;DHT22;65701;45.588;5.186;2023-04-08T00:28:28;6.37;68.94
76759;DHT22;65701;45.588;5.186;2023-04-08T00:30:54;6.34;69.01
76759;DHT22;65701;45.588;5.186;2023-04-08T00:33:20;6.35;69.03
76759;DHT22;65701;45.588;5.186;2023-04-08T00:35:46;6.31;69.14
76759;DHT22;65701;45.588;5.186;2023-04-08T00:38:11;6.29;69.19
76759;DHT22;65701;45.588;5.186;2023-04-08T00:40:36;6.27;69.13
76759;DHT22;65701;45.588;5.186;2023-04-08T00:43:02;6.21;69.24
76759;DHT22;65701;45.588;5.186;2023-04-08T00:45:27;6.20;69.27
76759;DHT22;65701;45.588;5.186;2023-04-08T00:47:53;6.16;69.36
76759;DHT22;65701;45.588;5.186;2023-04-08T00:50:19;6.17;69.44
76759;DHT22;65701;45.588;5.186;2023-04-08T00:52:44;6.11;69.58
76759;DHT22;65701;45.588;5.186;2023-04-08T00:55:10;6.14;69.67
76759;DHT22;65701;45.588;5.186;2023-04-08T00:57:36;6.14;69.86
76759;DHT22;65701;45.588;5.186;2023-04-08T01:00:03;6.08;70.52
76759;DHT22;65701;45.588;5.186;2023-04-08T01:05:43;6.03;70.19
76759;DHT22;65701;45.588;5.186;2023-04-08T01:08:13;6.00;70.19
76759;DHT22;65701;45.588;5.186;2023-04-08T01:10:40;6.00;70.32
76759;DHT22;65701;45.588;5.186;2023-04-08T01:13:11;5.96;70.28
76759;DHT22;65701;45.588;5.186;2023-04-08T01:15:39;5.94;70.18
76759;DHT22;65701;45.588;5.186;2023-04-08T01:18:09;5.96;70.05
76759;DHT22;65701;45.588;5.186;2023-04-08T01:20:37;5.96;70.03
76759;DHT22;65701;45.588;5.186;2023-04-08T01:23:20;5.99;70.12
76759;DHT22;65701;45.588;5.186;2023-04-08T01:25:52;6.00;70.24
76759;DHT22;65701;45.588;5.186;2023-04-08T01:28:18;5.99;70.26
76759;DHT22;65701;45.588;5.186;2023-04-08T01:30:46;5.99;70.30
76759;DHT22;65701;45.588;5.186;2023-04-08T01:33:15;5.94;70.34
76759;DHT22;65701;45.588;5.186;2023-04-08T01:35:41;5.82;70.28
76759;DHT22;65701;45.588;5.186;2023-04-08T01:38:09;5.66;70.23
76759;DHT22;65701;45.588;5.186;2023-04-08T01:40:37;5.56;70.15
76759;DHT22;65701;45.588;5.186;2023-04-08T01:43:07;5.51;70.12
76759;DHT22;65701;45.588;5.186;2023-04-08T01:45:32;5.49;70.19
76759;DHT22;65701;45.588;5.186;2023-04-08T01:47:59;5.46;70.26
76759;DHT22;65701;45.588;5.186;2023-04-08T01:50:26;5.45;70.38
76759;DHT22;65701;45.588;5.186;2023-04-08T01:52:53;5.39;70.54
76759;DHT22;65701;45.588;5.186;2023-04-08T01:55:20;5.32;70.75
76759;DHT22;65701;45.588;5.186;2023-04-08T01:57:53;5.24;70.86
76759;DHT22;65701;45.588;5.186;2023-04-08T02:00:26;5.20;70.57
76759;DHT22;65701;45.588;5.186;2023-04-08T02:02:53;5.20;70.46
76759;DHT22;65701;45.588;5.186;2023-04-08T02:05:19;5.23;70.32
76759;DHT22;65701;45.588;5.186;2023-04-08T02:07:47;5.25;70.31
76759;DHT22;65701;45.588;5.186;2023-04-08T02:10:14;5.27;70.44
76759;DHT22;65701;45.588;5.186;2023-04-08T02:12:40;5.28;70.52
76759;DHT22;65701;45.588;5.186;2023-04-08T02:15:07;5.30;70.68
76759;DHT22;65701;45.588;5.186;2023-04-08T02:17:44;5.27;70.78
76759;DHT22;65701;45.588;5.186;2023-04-08T02:20:37;5.21;71.64
76759;DHT22;65701;45.588;5.186;2023-04-08T02:23:18;5.20;71.46
76759;DHT22;65701;45.588;5.186;2023-04-08T02:25:45;5.21;71.33
76759;DHT22;65701;45.588;5.186;2023-04-08T02:28:13;5.20;71.25
76759;DHT22;65701;45.588;5.186;2023-04-08T02:30:49;5.23;71.18
76759;DHT22;65701;45.588;5.186;2023-04-08T02:33:19;5.24;71.23
76759;DHT22;65701;45.588;5.186;2023-04-08T02:35:47;5.24;71.11
76759;DHT22;65701;45.588;5.186;2023-04-08T02:38:13;5.25;71.09
76759;DHT22;65701;45.588;5.186;2023-04-08T02:40:39;5.25;70.92
76759;DHT22;65701;45.588;5.186;2023-04-08T02:43:04;5.23;71.42
76759;DHT22;65701;45.588;5.186;2023-04-08T02:45:32;5.23;71.56
76759;DHT22;65701;45.588;5.186;2023-04-08T02:48:00;5.17;71.68
76759;DHT22;65701;45.588;5.186;2023-04-08T02:50:25;5.17;71.65
76759;DHT22;65701;45.588;5.186;2023-04-08T02:52:51;5.17;71.47
76759;DHT22;65701;45.588;5.186;2023-04-08T02:55:17;5.16;71.38
76759;DHT22;65701;45.588;5.186;2023-04-08T02:57:42;5.17;71.36
76759;DHT22;65701;45.588;5.186;2023-04-08T03:00:08;5.14;71.93
76759;DHT22;65701;45.588;5.186;2023-04-08T03:02:34;5.16;72.31
76759;DHT22;65701;45.588;5.186;2023-04-08T03:05:01;5.14;72.30
76759;DHT22;65701;45.588;5.186;2023-04-08T03:07:26;5.16;72.38
76759;DHT22;65701;45.588;5.186;2023-04-08T03:09:53;5.14;72.41
76759;DHT22;65701;45.588;5.186;2023-04-08T03:12:20;5.11;72.37
76759;DHT22;65701;45.588;5.186;2023-04-08T03:14:46;5.13;72.30
76759;DHT22;65701;45.588;5.186;2023-04-08T03:17:11;5.11;72.29
